Yakima, WA

4:12 PM PDT on October 01, 2014 (GMT -0700)
Terraced Estates | Change Station
CLOSE
Current Station
Personal Weather Station
Location: Terrace Heights, WA
Elevation: 1302 ft
Nearby Weather Stations

Elev 1302 ft 46.61 °N, 120.43 °W | Updated 11 minutes ago

Partly Cloudy
Partly Cloudy
71.0 °F
Feels Like 76 °F
N
6.0
Wind Variable Wind from South
Gusts 7.0 mph

Today
High -- | Low -- °F
--% Chance of Precip.
Yesterday
High -- | Low -- °F
Precip. -- in
7:00 AM 6:41 PM
First Quarter, 52% visible
Pressure 30.01 in
Visibility 10.0 miles
Clouds Few 7500 ft
Heat Index 76 °F
Dew Point 40 °F
Humidity 33%
Rainfall 0.00 in
Snow Depth 0 in , 0 in , 0 in
UV 2 out of 12
Pollen 1.90 out of 12
Air Quality Not available.
Flu Activity Not available.
METAR K1YT 302256Z AUTO 34018G27KT 10SM FEW075 19/02 A3001 RMK AO2 PK WND 33026/46 SLPNO T01870023

More Conditions Fewer Conditions

Pressure 30.01 in
Visibility 10.0 miles
Clouds Few 7500 ft
Heat Index 76 °F
Dew Point 40 °F
Humidity 33%
Rainfall 0.00 in
Snow Depth 0 in , 0 in , 0 in
UV 2 out of 12
Pollen 1.90 out of 12
Air Quality Not available.
Flu Activity Not available.
METAR K1YT 302256Z AUTO 34018G27KT 10SM FEW075 19/02 A3001 RMK AO2 PK WND 33026/46 SLPNO T01870023

More Conditions Fewer Conditions

10-Day Weather Forecast

Almanac

Astronomy

Oct. 01, 2014 Rise Set
Actual Time 7:00 AM PDT 6:41 PM PDT
Civil Twilight 6:30 AM PDT 7:11 PM PDT
Nautical Twilight 5:55 AM PDT 7:46 PM PDT
Astronomical Twilight 5:19 AM PDT 8:21 PM PDT
Moon 2:21 PM PDT No Moon Set
Length of Visible Light 12h 41m
Length of Day
11h 40m
Tomorrow will be 3m 17s shorter.
First Quarter, 52% of the Moon is Illuminated
Today
First Quarter
Oct 8
Full
Oct 15
Last Quarter
Oct 23
New
Oct 30
First Quarter

Today's Extremes

State Highs State Lows

Community

WunderPhotos

Upload Photos

1,758,077 photos uploaded!

WunderBlogs® & News

By Dr. Jeff Masters
Director of Meteorology, Weather Underground
By Kari Strenfel
Meteorologist, Weather Underground
By Christopher C. Burt
Weather Historian, Weather Underground
October 1, 2014
October 1, 2014
October 1, 2014

Nearby

Snow Depth

Station Depth Elevation
Spencer Meadow 0 in 3400 ft
Harts Pass 0 in 6500 ft
Sheep Canyon 0 in 4030 ft
Moses Mountain 1 in 5300 ft
Quartz Peak 1 in 4700 ft

Earthquake Activity

City Distance Mag. Time & Date
No recent earthquake activity has been reported nearby.
Minimum magnitude displayed is 2.5.

Coastal Water Temperatures

Place Temperature
No Stations Reporting

Nearby Weather Stations